Time;durP1;ratioP1;P1;durP2;ratioP2;P2;SDS_P1;SDS_P2;PMS_P1;PMS_P2;Temp;Humidity;BMP_temperature;BMP_pressure;BME280_temperature;BME280_humidity;BME280_pressure;Samples;Min_cycle;Max_cycle;Signal;HPM_P1;HPM_P2
2022/06/15 00:01:11;;;;;;;7.20;3.20;;;;;;;-141.50;100.00;63355.56;5080411;28;20068;-82
2022/06/15 00:03:38;;;;;;;7.22;3.22;;;;;;;-141.50;100.00;63355.56;5074583;28;20687;-83
2022/06/15 00:06:11;;;;;;;5.32;2.90;;;;;;;-141.50;100.00;63355.56;5073839;28;20045;-83
2022/06/15 00:08:40;;;;;;;8.40;2.95;;;;;;;-141.50;100.00;63355.56;5074259;28;20091;-83
2022/06/15 00:11:18;;;;;;;6.65;3.08;;;;;;;-141.50;100.00;63355.56;5074174;28;20056;-83
2022/06/15 00:13:46;;;;;;;7.57;3.10;;;;;;;-141.50;100.00;63355.56;5073596;28;20049;-83
2022/06/15 00:16:13;;;;;;;6.80;3.15;;;;;;;-141.50;100.00;63355.56;5073974;28;20083;-83
2022/06/15 00:18:41;;;;;;;4.97;3.25;;;;;;;-141.50;100.00;63355.56;5061048;28;20048;-83
2022/06/15 00:21:08;;;;;;;8.50;3.25;;;;;;;-141.50;100.00;63355.56;5074752;28;20474;-83
2022/06/15 00:23:35;;;;;;;8.93;3.60;;;;;;;-141.50;100.00;63355.56;5075074;28;20075;-83
2022/06/15 00:26:04;;;;;;;6.95;3.33;;;;;;;-141.50;100.00;63355.56;5076143;28;20056;-82
2022/06/15 00:28:31;;;;;;;8.50;3.70;;;;;;;-141.50;100.00;63355.56;5069785;28;20057;-83
2022/06/15 00:30:59;;;;;;;7.28;3.13;;;;;;;-141.50;100.00;63355.56;5070531;28;20072;-82
2022/06/15 00:33:33;;;;;;;8.70;4.65;;;;;;;-141.50;100.00;63355.56;5065847;28;20066;-81
2022/06/15 00:36:06;;;;;;;6.90;3.60;;;;;;;-141.50;100.00;63355.56;5076193;28;20043;-81
2022/06/15 00:38:38;;;;;;;9.70;3.75;;;;;;;-141.50;100.00;63355.56;5094303;28;20052;-81
2022/06/15 00:41:07;;;;;;;11.13;3.88;;;;;;;-141.50;100.00;63355.56;5062566;28;20044;-84
2022/06/15 00:44:02;;;;;;;7.68;4.10;;;;;;;-141.50;100.00;63355.56;5057691;28;20106;-81
2022/06/15 00:46:42;;;;;;;13.10;3.63;;;;;;;-141.50;100.00;63355.56;5083646;28;20058;-82
2022/06/15 00:49:29;;;;;;;6.40;3.30;;;;;;;-141.50;100.00;63355.56;5089733;28;20033;-81
2022/06/15 00:52:05;;;;;;;5.07;3.50;;;;;;;-141.50;100.00;63355.56;5091692;28;20333;-83
2022/06/15 00:54:31;;;;;;;7.07;3.50;;;;;;;-141.50;100.00;63355.56;5068840;28;20048;-82
2022/06/15 00:56:58;;;;;;;7.93;3.65;;;;;;;-141.50;100.00;63355.56;5073917;28;20049;-82
2022/06/15 00:59:32;;;;;;;8.30;3.78;;;;;;;-141.50;100.00;63355.56;5074546;28;20044;-82
2022/06/15 01:01:59;;;;;;;7.50;3.50;;;;;;;-141.50;100.00;63355.56;5072048;28;20530;-83
2022/06/15 01:04:38;;;;;;;7.97;3.30;;;;;;;-141.50;100.00;63355.56;5056867;28;20049;-84
2022/06/15 01:07:15;;;;;;;12.45;3.08;;;;;;;-141.50;100.00;63355.56;5074132;28;20067;-84
2022/06/15 01:10:00;;;;;;;5.18;3.65;;;;;;;-141.50;100.00;63355.56;5055612;28;20076;-82
2022/06/15 01:12:48;;;;;;;7.72;3.10;;;;;;;-141.50;100.00;63355.56;5071305;28;20048;-82
2022/06/15 01:15:42;;;;;;;7.22;3.03;;;;;;;-141.50;100.00;63355.56;5073263;28;20168;-83
2022/06/15 01:18:22;;;;;;;7.10;3.35;;;;;;;-141.50;100.00;63355.56;5054626;28;20049;-82
2022/06/15 01:20:58;;;;;;;6.28;2.60;;;;;;;-141.50;100.00;63355.56;5053502;28;20434;-83
2022/06/15 01:24:03;;;;;;;5.85;3.35;;;;;;;-141.50;100.00;63355.56;5054170;28;20552;-82
2022/06/15 01:27:02;;;;;;;4.85;3.17;;;;;;;-141.50;100.00;63355.56;4989848;28;20058;-82
2022/06/15 01:30:10;;;;;;;10.02;3.10;;;;;;;-141.50;100.00;63355.56;4990409;28;20050;-82
2022/06/15 01:32:37;;;;;;;5.18;2.90;;;;;;;-141.50;100.00;63355.56;5069166;28;20060;-81
2022/06/15 01:35:13;;;;;;;6.43;3.22;;;;;;;-141.50;100.00;63355.56;5073197;28;20053;-82
2022/06/15 01:37:47;;;;;;;7.85;3.60;;;;;;;-141.50;100.00;63355.56;5090340;28;20075;-80
2022/06/15 01:40:27;;;;;;;13.35;3.80;;;;;;;-141.50;100.00;63355.56;5076449;28;20052;-83
2022/06/15 01:43:01;;;;;;;8.40;3.40;;;;;;;-141.50;100.00;63355.56;5059392;28;20052;-79
2022/06/15 01:45:33;;;;;;;11.27;4.32;;;;;;;-141.50;100.00;63355.56;5087644;28;20154;-80
2022/06/15 01:48:04;;;;;;;5.53;3.70;;;;;;;-141.50;100.00;63355.56;5087531;28;20503;-82
2022/06/15 01:50:39;;;;;;;6.68;3.83;;;;;;;-141.50;100.00;63355.56;5077353;28;20461;-83
2022/06/15 01:53:49;;;;;;;10.13;3.38;;;;;;;-141.50;100.00;63355.56;5076593;28;20058;-84
2022/06/15 01:56:22;;;;;;;7.00;3.72;;;;;;;-141.50;100.00;63355.56;5068518;28;20111;-83
2022/06/15 01:59:08;;;;;;;5.68;3.35;;;;;;;-141.50;100.00;63355.56;5067899;28;20084;-82
2022/06/15 02:02:13;;;;;;;7.75;3.30;;;;;;;-141.50;100.00;63355.56;5077651;28;20057;-83
2022/06/15 02:04:46;;;;;;;6.25;3.50;;;;;;;-141.50;100.00;63355.56;5094094;28;20040;-84
2022/06/15 02:07:32;;;;;;;6.60;3.83;;;;;;;-141.50;100.00;63355.56;5060815;28;20055;-84
2022/06/15 02:10:06;;;;;;;8.00;4.00;;;;;;;-141.50;100.00;63355.56;5060274;28;20062;-84
2022/06/15 02:12:42;;;;;;;8.93;4.00;;;;;;;-141.50;100.00;63355.56;5059313;28;20079;-82
2022/06/15 02:15:16;;;;;;;6.57;3.65;;;;;;;-141.50;100.00;63355.56;5060141;28;20044;-82
2022/06/15 02:17:46;;;;;;;5.53;4.00;;;;;;;-141.50;100.00;63355.56;5077399;28;20503;-81
2022/06/15 02:20:23;;;;;;;7.70;3.30;;;;;;;-141.50;100.00;63355.56;5058782;28;20701;-84
2022/06/15 02:22:53;;;;;;;5.55;3.28;;;;;;;-141.50;100.00;63355.56;5058224;28;20064;-83
2022/06/15 02:25:25;;;;;;;8.43;3.25;;;;;;;-141.50;100.00;63355.56;5057164;28;20072;-84
2022/06/15 02:27:52;;;;;;;6.72;3.78;;;;;;;-141.50;100.00;63355.56;5058638;28;20114;-81
2022/06/15 02:30:25;;;;;;;5.40;3.75;;;;;;;-141.50;100.00;63355.56;5060659;28;20048;-81
2022/06/15 02:32:53;;;;;;;7.20;3.63;;;;;;;-141.50;100.00;63355.56;5072722;28;20053;-82
2022/06/15 02:35:21;;;;;;;5.80;3.70;;;;;;;-141.50;100.00;63355.56;5072499;28;20503;-82
2022/06/15 02:37:50;;;;;;;10.23;3.65;;;;;;;-141.50;100.00;63355.56;5068667;28;20067;-81
2022/06/15 02:40:20;;;;;;;7.45;4.10;;;;;;;-141.50;100.00;63355.56;5071959;28;20049;-82
2022/06/15 02:42:47;;;;;;;6.80;4.05;;;;;;;-141.50;100.00;63355.56;5077632;28;20118;-82
2022/06/15 02:45:23;;;;;;;10.43;3.75;;;;;;;-141.50;100.00;63355.56;5075807;28;20102;-81
2022/06/15 02:47:50;;;;;;;7.13;3.90;;;;;;;-141.50;100.00;63355.56;5073940;28;20044;-83
2022/06/15 02:50:20;;;;;;;5.20;3.50;;;;;;;-141.50;100.00;63355.56;5072075;28;20129;-82
2022/06/15 02:52:57;;;;;;;7.15;3.85;;;;;;;-141.50;100.00;63355.56;5055425;28;20503;-81
2022/06/15 02:55:25;;;;;;;9.00;4.55;;;;;;;-141.50;100.00;63355.56;5072715;28;20119;-81
2022/06/15 02:58:06;;;;;;;8.95;4.15;;;;;;;-141.50;100.00;63355.56;5056080;28;20048;-82
2022/06/15 03:00:37;;;;;;;9.18;4.10;;;;;;;-141.50;100.00;63355.56;5074606;28;20048;-83
2022/06/15 03:03:04;;;;;;;7.40;4.18;;;;;;;-141.50;100.00;63355.56;5074210;28;20056;-83
2022/06/15 03:05:31;;;;;;;8.43;4.60;;;;;;;-141.50;100.00;63355.56;5056030;28;20387;-83
2022/06/15 03:07:58;;;;;;;9.48;4.43;;;;;;;-141.50;100.00;63355.56;5055918;28;20135;-84
2022/06/15 03:10:24;;;;;;;5.70;4.05;;;;;;;-141.50;100.00;63355.56;5063287;28;20110;-83
2022/06/15 03:12:51;;;;;;;10.07;3.65;;;;;;;-141.50;100.00;63355.56;5060535;28;20155;-83
2022/06/15 03:15:18;;;;;;;9.98;4.07;;;;;;;-141.50;100.00;63355.56;5059019;28;20045;-83
2022/06/15 03:17:47;;;;;;;9.10;4.53;;;;;;;-141.50;100.00;63355.56;5075474;28;20044;-85
2022/06/15 03:20:15;;;;;;;8.43;4.57;;;;;;;-141.50;100.00;63355.56;5073918;28;20140;-83
2022/06/15 03:22:42;;;;;;;8.27;4.55;;;;;;;-141.50;100.00;63355.56;5057060;28;20056;-83
2022/06/15 03:25:08;;;;;;;9.43;4.32;;;;;;;-141.50;100.00;63355.56;5056685;28;20064;-84
2022/06/15 03:27:38;;;;;;;9.85;4.43;;;;;;;-141.50;100.00;63355.56;5057179;28;20109;-84
2022/06/15 03:30:07;;;;;;;8.10;4.00;;;;;;;-141.50;100.00;63355.56;5074708;28;20463;-83
2022/06/15 03:32:34;;;;;;;8.90;4.47;;;;;;;-141.50;100.00;63355.56;5091510;28;20410;-83
2022/06/15 03:35:05;;;;;;;10.60;4.20;;;;;;;-141.50;100.00;63355.56;5080069;28;20076;-83
2022/06/15 03:37:35;;;;;;;15.40;4.40;;;;;;;-141.50;100.00;63355.56;5072255;28;20063;-84
2022/06/15 03:40:02;;;;;;;6.82;3.95;;;;;;;-141.50;100.00;63355.56;5055783;28;20052;-83
2022/06/15 03:42:28;;;;;;;9.02;4.15;;;;;;;-141.50;100.00;63355.56;5072518;28;20637;-84
2022/06/15 03:44:55;;;;;;;7.95;4.15;;;;;;;-141.50;100.00;63355.56;5060979;28;20491;-82
2022/06/15 03:47:22;;;;;;;8.75;4.03;;;;;;;-141.50;100.00;63355.56;5076657;28;20133;-82
2022/06/15 03:49:52;;;;;;;8.75;5.20;;;;;;;-141.50;100.00;63355.56;5057291;28;20066;-83
2022/06/15 03:52:21;;;;;;;11.02;4.70;;;;;;;-141.50;100.00;63355.56;5073348;28;20487;-83
2022/06/15 03:54:50;;;;;;;7.72;4.32;;;;;;;-141.50;100.00;63355.56;5072571;28;20048;-83
2022/06/15 03:57:20;;;;;;;7.45;4.85;;;;;;;-141.50;100.00;63355.56;5074869;28;20052;-83
2022/06/15 03:59:47;;;;;;;6.57;4.63;;;;;;;-141.50;100.00;63355.56;5074639;28;20041;-83
2022/06/15 04:02:13;;;;;;;9.75;4.50;;;;;;;-141.50;100.00;63355.56;5081754;28;20054;-83
2022/06/15 04:04:40;;;;;;;9.48;5.00;;;;;;;-141.50;100.00;63355.56;5081557;28;20074;-84
2022/06/15 04:08:34;;;;;;;9.25;4.78;;;;;;;-141.50;100.00;63355.56;5080335;28;20063;-84
2022/06/15 04:09:54;;;;;;;12.50;4.72;;;;;;;-141.50;100.00;63355.56;5079456;28;20076;-84
2022/06/15 04:12:21;;;;;;;12.85;4.65;;;;;;;-141.50;100.00;63355.56;5079973;28;20044;-84
2022/06/15 04:14:49;;;;;;;9.77;4.45;;;;;;;-141.50;100.00;63355.56;5080636;28;20067;-84
2022/06/15 04:17:18;;;;;;;11.18;4.40;;;;;;;-141.50;100.00;63355.56;5081137;28;20048;-86
2022/06/15 04:20:31;;;;;;;10.18;4.60;;;;;;;-141.50;100.00;63355.56;5057372;28;20495;-84
2022/06/15 04:22:31;;;;;;;13.68;4.72;;;;;;;-141.50;100.00;63355.56;5078271;28;20055;-85
2022/06/15 04:24:58;;;;;;;8.18;4.93;;;;;;;-141.50;100.00;63355.56;5058961;28;20709;-84
2022/06/15 04:27:41;;;;;;;11.45;4.95;;;;;;;-141.50;100.00;63355.56;5061320;28;20068;-84
2022/06/15 04:34:33;;;;;;;;;;;;;;;;;;;;;
2022/06/15 04:41:58;;;;;;;11.55;4.63;;;;;;;-141.50;100.00;63355.56;5043700;28;20049;-84
2022/06/15 04:49:09;;;;;;;;;;;;;;;;;;;;;
2022/06/15 04:53:03;;;;;;;9.60;4.35;;;;;;;-141.50;100.00;63355.56;4858600;29;20084;-82
2022/06/15 04:56:26;;;;;;;;;;;;;;;;;;;;;
2022/06/15 05:00:21;;;;;;;6.30;3.58;;;;;;;-141.50;100.00;63355.56;4819178;29;20074;-82
2022/06/15 05:03:14;;;;;;;5.97;3.00;;;;;;;-141.50;100.00;63355.56;4824658;29;20096;-82
2022/06/15 05:06:20;;;;;;;;;;;;;;;;;;;;;
2022/06/15 05:09:06;;;;;;;5.70;2.63;;;;;;;-141.50;100.00;63355.56;4894177;29;20089;-82
2022/06/15 05:11:45;;;;;;;8.02;3.05;;;;;;;-141.50;100.00;63355.56;4930176;29;20048;-81
2022/06/15 05:14:25;;;;;;;8.00;2.78;;;;;;;-141.50;100.00;63355.56;4937508;29;20044;-81
2022/06/15 05:16:51;;;;;;;6.20;2.55;;;;;;;-141.50;100.00;63355.56;4920712;29;20052;-82
2022/06/15 05:19:19;;;;;;;7.63;2.45;;;;;;;-141.50;100.00;63355.56;4946561;29;20044;-82
2022/06/15 05:21:45;;;;;;;8.75;2.50;;;;;;;-141.50;100.00;63355.56;4976868;28;20579;-81
2022/06/15 05:24:12;;;;;;;8.35;2.95;;;;;;;-141.50;100.00;63355.56;5025534;28;20057;-82
2022/06/15 05:26:39;;;;;;;7.47;2.00;;;;;;;-141.50;100.00;63355.56;5022996;28;20114;-82
2022/06/15 05:29:08;;;;;;;4.07;1.98;;;;;;;-141.50;100.00;63355.56;5029584;28;20045;-81
2022/06/15 05:31:41;;;;;;;4.00;2.40;;;;;;;-141.50;100.00;63355.56;5060148;28;20084;-82
2022/06/15 05:34:07;;;;;;;7.57;2.17;;;;;;;-141.50;100.00;63355.56;5059692;28;20070;-82
2022/06/15 05:36:36;;;;;;;9.45;2.42;;;;;;;-141.50;100.00;63355.56;5059438;28;20123;-82
2022/06/15 05:39:04;;;;;;;10.93;3.05;;;;;;;-141.50;100.00;63355.56;5077132;28;20336;-82
2022/06/15 05:41:31;;;;;;;6.18;1.92;;;;;;;-141.50;100.00;63355.56;5077112;28;20052;-82
2022/06/15 05:44:15;;;;;;;10.07;2.65;;;;;;;-141.50;100.00;63355.56;5079390;28;20048;-84
2022/06/15 05:46:42;;;;;;;9.60;3.20;;;;;;;-141.50;100.00;63355.56;5062207;28;20429;-82
2022/06/15 05:49:12;;;;;;;7.35;2.60;;;;;;;-141.50;100.00;63355.56;5060201;28;20041;-83
2022/06/15 05:51:41;;;;;;;4.93;1.95;;;;;;;-141.50;100.00;63355.56;5077373;28;20491;-83
2022/06/15 05:54:07;;;;;;;7.05;1.70;;;;;;;-141.50;100.00;63355.56;5077152;28;20059;-82
2022/06/15 05:56:34;;;;;;;6.72;2.20;;;;;;;-141.50;100.00;63355.56;5062541;28;20048;-82
2022/06/15 05:59:00;;;;;;;7.18;1.60;;;;;;;-141.50;100.00;63355.56;5059989;28;20105;-81
2022/06/15 06:01:33;;;;;;;7.75;1.70;;;;;;;-141.50;100.00;63355.56;5079078;28;20509;-83
2022/06/15 06:04:03;;;;;;;10.27;2.30;;;;;;;-141.50;100.00;63355.56;5076834;28;20052;-82
2022/06/15 06:06:31;;;;;;;5.82;1.67;;;;;;;-141.50;100.00;63355.56;5078007;28;20048;-83
2022/06/15 06:08:59;;;;;;;13.90;1.60;;;;;;;-141.50;100.00;63355.56;5057988;28;20104;-83
2022/06/15 06:11:26;;;;;;;6.13;1.88;;;;;;;-141.50;100.00;63355.56;5058151;28;20688;-83
2022/06/15 06:13:53;;;;;;;6.88;1.63;;;;;;;-141.50;100.00;63355.56;5058517;28;20087;-83
2022/06/15 06:16:21;;;;;;;13.07;1.70;;;;;;;-141.50;100.00;63355.56;5059444;28;20464;-82
2022/06/15 06:18:48;;;;;;;5.57;1.63;;;;;;;-141.50;100.00;63355.56;5084798;28;20060;-80
2022/06/15 06:21:18;;;;;;;7.68;1.88;;;;;;;-141.50;100.00;63355.56;5069523;28;20169;-82
2022/06/15 06:23:45;;;;;;;6.68;2.05;;;;;;;-141.50;100.00;63355.56;5063156;28;20057;-82
2022/06/15 06:26:28;;;;;;;6.70;2.10;;;;;;;-141.50;100.00;63355.56;5079469;28;20312;-80
2022/06/15 06:28:56;;;;;;;8.30;1.70;;;;;;;-141.50;100.00;63355.56;5063954;28;20045;-82
2022/06/15 06:31:25;;;;;;;7.25;1.90;;;;;;;-141.50;100.00;63355.56;5057270;28;20052;-82
2022/06/15 06:33:53;;;;;;;4.82;1.50;;;;;;;-141.50;100.00;63355.56;5059232;28;20510;-81
2022/06/15 06:36:23;;;;;;;16.58;2.30;;;;;;;-141.50;100.00;63355.56;5069378;28;20064;-82
2022/06/15 06:38:50;;;;;;;8.00;1.80;;;;;;;-141.50;100.00;63355.56;5062111;28;20045;-80
2022/06/15 06:41:20;;;;;;;10.63;1.92;;;;;;;-141.50;100.00;63355.56;5076141;28;20083;-82
2022/06/15 06:43:49;;;;;;;6.40;1.65;;;;;;;-141.50;100.00;63355.56;5056904;28;20071;-80
2022/06/15 06:46:17;;;;;;;12.00;1.67;;;;;;;-141.50;100.00;63355.56;5074796;28;20726;-82
2022/06/15 06:48:46;;;;;;;8.95;1.80;;;;;;;-141.50;100.00;63355.56;5056626;28;20052;-82
2022/06/15 06:51:14;;;;;;;6.07;1.70;;;;;;;-141.50;100.00;63355.56;5073995;28;20071;-82
2022/06/15 06:53:41;;;;;;;8.32;1.88;;;;;;;-141.50;100.00;63355.56;5056605;28;20136;-82
2022/06/15 06:56:09;;;;;;;6.60;1.83;;;;;;;-141.50;100.00;63355.56;5074893;28;20048;-82
2022/06/15 06:58:39;;;;;;;7.35;1.50;;;;;;;-141.50;100.00;63355.56;5074973;28;20135;-83
2022/06/15 07:01:06;;;;;;;8.68;1.73;;;;;;;-141.50;100.00;63355.56;5057087;28;20056;-82
2022/06/15 07:03:33;;;;;;;10.00;1.90;;;;;;;-141.50;100.00;63355.56;5057626;28;20072;-82
2022/06/15 07:06:08;;;;;;;5.10;1.45;;;;;;;-141.50;100.00;63355.56;5075160;28;20055;-82
2022/06/15 07:08:37;;;;;;;9.63;2.00;;;;;;;-141.50;100.00;63355.56;5074767;28;20731;-82
2022/06/15 07:11:09;;;;;;;6.78;1.65;;;;;;;-141.50;100.00;63355.56;5074275;28;20051;-82
2022/06/15 07:13:36;;;;;;;9.15;1.38;;;;;;;-141.50;100.00;63355.56;5075003;28;20056;-82
2022/06/15 07:16:08;;;;;;;6.50;1.55;;;;;;;-141.50;100.00;63355.56;5073951;28;20052;-80
2022/06/15 07:18:37;;;;;;;7.13;1.60;;;;;;;-141.50;100.00;63355.56;5072502;28;20514;-79
2022/06/15 07:21:07;;;;;;;7.93;1.40;;;;;;;-141.50;100.00;63355.56;5070262;28;20056;-81
2022/06/15 07:23:34;;;;;;;7.25;1.50;;;;;;;-141.50;100.00;63355.56;5052752;28;20118;-80
2022/06/15 07:26:10;;;;;;;6.22;1.33;;;;;;;-141.50;100.00;63355.56;5071103;28;20110;-81
2022/06/15 07:28:40;;;;;;;5.30;1.50;;;;;;;-141.50;100.00;63355.56;5071414;28;20468;-81
2022/06/15 07:31:24;;;;;;;8.33;1.30;;;;;;;-141.50;100.00;63355.56;5053628;28;20052;-80
2022/06/15 07:33:51;;;;;;;5.13;1.23;;;;;;;-141.50;100.00;63355.56;5054147;28;20422;-82
2022/06/15 07:36:23;;;;;;;5.25;1.40;;;;;;;-141.50;100.00;63355.56;5071665;28;20048;-80
2022/06/15 07:38:55;;;;;;;3.75;1.30;;;;;;;-141.50;100.00;63355.56;5054788;28;20580;-82
2022/06/15 07:41:23;;;;;;;2.40;1.20;;;;;;;-141.50;100.00;63355.56;5071415;28;20084;-81
2022/06/15 07:43:50;;;;;;;4.57;1.33;;;;;;;-141.50;100.00;63355.56;5056916;28;20458;-81
2022/06/15 07:46:16;;;;;;;5.72;1.50;;;;;;;-141.50;100.00;63355.56;5075740;28;20049;-81
2022/06/15 07:51:33;;;;;;;8.00;1.63;;;;;;;-141.50;100.00;63355.56;5076334;28;20049;-83
2022/06/15 07:54:04;;;;;;;6.78;1.65;;;;;;;-141.50;100.00;63355.56;5059782;28;20122;-82
2022/06/15 07:56:31;;;;;;;4.07;1.08;;;;;;;-141.50;100.00;63355.56;5076069;28;20048;-83
2022/06/15 07:58:58;;;;;;;5.32;1.27;;;;;;;-141.50;100.00;63355.56;5074505;28;20075;-83
2022/06/15 08:01:29;;;;;;;5.95;1.55;;;;;;;-141.50;100.00;63355.56;5055270;28;20102;-83
2022/06/15 08:03:56;;;;;;;4.80;1.50;;;;;;;-141.50;100.00;63355.56;5072941;28;20144;-82
2022/06/15 08:06:28;;;;;;;4.00;1.10;;;;;;;-141.50;100.00;63355.56;5055477;28;20055;-82
2022/06/15 08:08:54;;;;;;;4.53;1.50;;;;;;;-141.50;100.00;63355.56;5054645;28;20434;-82
2022/06/15 08:11:21;;;;;;;4.22;1.40;;;;;;;-141.50;100.00;63355.56;5072964;28;20135;-83
2022/06/15 08:13:48;;;;;;;4.72;1.70;;;;;;;-141.50;100.00;63355.56;5075530;28;20051;-82
2022/06/15 08:16:17;;;;;;;10.07;1.42;;;;;;;-141.50;100.00;63355.56;5055229;28;20434;-82
2022/06/15 08:18:52;;;;;;;8.45;1.42;;;;;;;-141.50;100.00;63355.56;5072018;28;20048;-80
2022/06/15 08:21:24;;;;;;;7.75;1.70;;;;;;;-141.50;100.00;63355.56;5052285;28;20076;-81
2022/06/15 08:23:53;;;;;;;6.47;1.35;;;;;;;-141.50;100.00;63355.56;5052609;28;20080;-81
2022/06/15 08:26:27;;;;;;;5.10;1.27;;;;;;;-141.50;100.00;63355.56;5052624;28;20080;-79
2022/06/15 08:28:58;;;;;;;4.63;1.33;;;;;;;-141.50;100.00;63355.56;5069960;28;20052;-82
2022/06/15 08:31:25;;;;;;;8.48;1.60;;;;;;;-141.50;100.00;63355.56;5069392;28;20497;-80
2022/06/15 08:33:51;;;;;;;7.45;1.38;;;;;;;-141.50;100.00;63355.56;5051586;28;20071;-79
2022/06/15 08:36:19;;;;;;;4.18;1.58;;;;;;;-141.50;100.00;63355.56;5071325;28;20084;-79
2022/06/15 08:38:47;;;;;;;4.95;1.45;;;;;;;-141.50;100.00;63355.56;5053336;28;20090;-82
2022/06/15 08:41:37;;;;;;;5.57;1.50;;;;;;;-141.50;100.00;63355.56;5071152;28;20528;-82
2022/06/15 08:44:34;;;;;;;7.18;1.70;;;;;;;-141.50;100.00;63355.56;5052768;28;20048;-82
2022/06/15 08:47:28;;;;;;;5.30;1.30;;;;;;;-141.50;100.00;63355.56;5069909;28;20056;-82
2022/06/15 08:50:06;;;;;;;6.78;1.80;;;;;;;-141.50;100.00;63355.56;5070404;28;20052;-83
2022/06/15 08:52:37;;;;;;;5.35;1.27;;;;;;;-141.50;100.00;63355.56;5051938;28;20098;-81
2022/06/15 08:55:07;;;;;;;3.95;1.60;;;;;;;-141.50;100.00;63355.56;5052070;28;20094;-82
2022/06/15 08:58:00;;;;;;;9.48;1.83;;;;;;;-141.50;100.00;63355.56;5053660;28;20045;-81
2022/06/15 09:00:37;;;;;;;6.20;1.60;;;;;;;-141.50;100.00;63355.56;5039315;28;20144;-81
2022/06/15 09:03:28;;;;;;;5.90;1.80;;;;;;;-141.50;100.00;63355.56;5052171;28;20048;-82
2022/06/15 09:05:57;;;;;;;3.40;1.50;;;;;;;-141.50;100.00;63355.56;5070897;28;20553;-83
2022/06/15 09:08:51;;;;;;;5.18;1.67;;;;;;;-141.50;100.00;63355.56;5073043;28;20127;-81
2022/06/15 09:11:18;;;;;;;4.10;1.60;;;;;;;-141.50;100.00;63355.56;5054212;28;20048;-82
2022/06/15 09:13:53;;;;;;;8.25;2.05;;;;;;;-141.50;100.00;63355.56;5053176;28;20053;-82
2022/06/15 09:16:29;;;;;;;5.82;1.60;;;;;;;-141.50;100.00;63355.56;5054083;28;20418;-82
2022/06/15 09:19:06;;;;;;;;;;;;;;;-141.50;100.00;63355.56;5069048;28;20056;-81
2022/06/15 09:21:43;;;;;;;3.83;1.65;;;;;;;-141.50;100.00;63355.56;5049253;28;19921;-80
2022/06/15 09:24:17;;;;;;;5.88;1.75;;;;;;;-141.50;100.00;63355.56;5049389;28;20568;-83
2022/06/15 09:26:55;;;;;;;5.47;1.80;;;;;;;-141.50;100.00;63355.56;5050231;28;20049;-81
2022/06/15 09:29:28;;;;;;;9.48;1.80;;;;;;;-141.50;100.00;63355.56;5032435;28;20057;-81
2022/06/15 09:32:21;;;;;;;5.28;1.80;;;;;;;-141.50;100.00;63355.56;5049555;28;20144;-83
2022/06/15 09:35:11;;;;;;;11.45;1.70;;;;;;;-141.50;100.00;63355.56;5032169;28;20523;-82
2022/06/15 09:37:42;;;;;;;5.20;1.58;;;;;;;-141.50;100.00;63355.56;5047450;28;20049;-81
2022/06/15 09:40:09;;;;;;;5.68;1.95;;;;;;;-141.50;100.00;63355.56;5031176;28;20045;-82
2022/06/15 09:42:57;;;;;;;5.38;1.67;;;;;;;-141.50;100.00;63355.56;5048093;28;20646;-81
2022/06/15 09:45:30;;;;;;;4.40;1.67;;;;;;;-141.50;100.00;63355.56;5049029;28;20519;-82
2022/06/15 09:48:14;;;;;;;7.00;1.50;;;;;;;-141.50;100.00;63355.56;5049565;28;20053;-84
2022/06/15 09:51:12;;;;;;;5.60;1.88;;;;;;;-141.50;100.00;63355.56;5050348;28;20071;-83
2022/06/15 09:54:09;;;;;;;5.07;1.60;;;;;;;-141.50;100.00;63355.56;5049601;28;20076;-83
2022/06/15 09:56:37;;;;;;;3.95;1.63;;;;;;;-141.50;100.00;63355.56;5032786;28;20114;-82
2022/06/15 09:59:12;;;;;;;4.63;1.80;;;;;;;-141.50;100.00;63355.56;5033689;28;20495;-83
2022/06/15 10:01:42;;;;;;;4.53;1.80;;;;;;;-141.50;100.00;63355.56;5059992;28;20045;-81
2022/06/15 10:04:15;;;;;;;6.22;1.92;;;;;;;-141.50;100.00;63355.56;5056015;28;20099;-81
2022/06/15 10:07:11;;;;;;;8.50;1.98;;;;;;;-141.50;100.00;63355.56;5068051;28;20116;-84
2022/06/15 10:09:42;;;;;;;6.13;1.85;;;;;;;-141.50;100.00;63355.56;5068477;28;20041;-81
2022/06/15 10:15:16;;;;;;;5.82;1.67;;;;;;;-141.50;100.00;63355.56;5052005;28;20049;-81
2022/06/15 10:17:48;;;;;;;4.05;1.80;;;;;;;-141.50;100.00;63355.56;5059240;28;20044;-81
2022/06/15 10:20:26;;;;;;;4.50;1.90;;;;;;;-141.50;100.00;63355.56;5071167;28;20082;-81
2022/06/15 10:22:55;;;;;;;6.97;1.60;;;;;;;-141.50;100.00;63355.56;5075683;28;20064;-81
2022/06/15 10:25:22;;;;;;;3.05;1.50;;;;;;;-141.50;100.00;63355.56;5056220;28;20113;-81
2022/06/15 10:27:51;;;;;;;3.97;1.40;;;;;;;-141.50;100.00;63355.56;5072386;28;20126;-81
2022/06/15 10:30:22;;;;;;;5.70;1.63;;;;;;;-141.50;100.00;63355.56;5054279;28;20075;-80
2022/06/15 10:33:12;;;;;;;5.63;1.80;;;;;;;-141.50;100.00;63355.56;5054138;28;20571;-82
2022/06/15 10:35:39;;;;;;;5.07;1.70;;;;;;;-141.50;100.00;63355.56;5072099;28;20098;-82
2022/06/15 10:38:16;;;;;;;5.38;1.80;;;;;;;-141.50;100.00;63355.56;5071303;28;20553;-83
2022/06/15 10:44:02;;;;;;;3.55;1.75;;;;;;;-141.50;100.00;63355.56;5051676;28;20246;-81
2022/06/15 10:46:50;;;;;;;2.60;1.50;;;;;;;-141.50;100.00;63355.56;5080752;28;20076;-82
2022/06/15 10:49:17;;;;;;;3.50;1.75;;;;;;;-141.50;100.00;63355.56;5073962;28;20104;-82
2022/06/15 10:51:44;;;;;;;4.20;1.60;;;;;;;-141.50;100.00;63355.56;5073677;28;20123;-82
2022/06/15 11:02:06;;;;;;;4.90;2.00;;;;;;;-141.50;100.00;63355.56;5074712;28;20058;-81
2022/06/15 11:03:16;;;;;;;4.05;1.85;;;;;;;-141.50;100.00;63355.56;5071707;28;20098;-82
2022/06/15 11:05:46;;;;;;;6.40;1.58;;;;;;;-141.50;100.00;63355.56;5072018;28;20130;-83
2022/06/15 11:08:20;;;;;;;3.80;1.65;;;;;;;-141.50;100.00;63355.56;5073195;28;20052;-84
2022/06/15 11:10:50;;;;;;;4.25;1.67;;;;;;;-141.50;100.00;63355.56;5055828;28;20098;-82
2022/06/15 11:13:19;;;;;;;4.43;1.80;;;;;;;-141.50;100.00;63355.56;5077823;28;20076;-82
2022/06/15 11:18:58;;;;;;;6.55;1.98;;;;;;;-141.50;100.00;63355.56;5079796;28;20072;-83
2022/06/15 11:21:31;;;;;;;6.88;1.85;;;;;;;-141.50;100.00;63355.56;5076484;28;20044;-82
2022/06/15 11:24:14;;;;;;;3.55;1.60;;;;;;;-141.50;100.00;63355.56;5077017;28;20078;-82
2022/06/15 11:27:20;;;;;;;4.20;1.60;;;;;;;-141.50;100.00;63355.56;5056987;28;20076;-82
2022/06/15 11:30:42;;;;;;;4.47;1.77;;;;;;;-141.50;100.00;63355.56;5075629;28;20110;-82
2022/06/15 11:33:18;;;;;;;2.70;1.85;;;;;;;-141.50;100.00;63355.56;5044240;28;20771;-80
2022/06/15 11:36:00;;;;;;;4.05;1.50;;;;;;;-141.50;100.00;63355.56;5078017;28;20072;-81
2022/06/15 11:38:32;;;;;;;5.90;1.65;;;;;;;-141.50;100.00;63355.56;5093658;28;20075;-81
2022/06/15 11:41:16;;;;;;;3.50;1.70;;;;;;;-141.50;100.00;63355.56;5092524;28;20044;-81
2022/06/15 11:43:45;;;;;;;4.57;1.52;;;;;;;-141.50;100.00;63355.56;5062934;28;20181;-83
2022/06/15 11:46:35;;;;;;;8.50;1.70;;;;;;;-141.50;100.00;63355.56;5056583;28;20056;-82
2022/06/15 11:49:04;;;;;;;6.43;1.55;;;;;;;-141.50;100.00;63355.56;5053538;28;20044;-81
2022/06/15 11:51:51;;;;;;;7.85;1.90;;;;;;;-141.50;100.00;63355.56;5053308;28;20126;-81
2022/06/15 11:54:36;;;;;;;5.35;1.77;;;;;;;-141.50;100.00;63355.56;5055073;28;20056;-82
2022/06/15 11:57:34;;;;;;;5.55;1.85;;;;;;;-141.50;100.00;63355.56;5055812;28;20052;-80
2022/06/15 12:00:25;;;;;;;5.47;1.63;;;;;;;-141.50;100.00;63355.56;5057425;28;20060;-82
2022/06/15 12:03:04;;;;;;;4.28;1.65;;;;;;;-141.50;100.00;63355.56;5056217;28;20404;-83
2022/06/15 12:05:42;;;;;;;3.28;1.60;;;;;;;-141.50;100.00;63355.56;5055450;28;20575;-83
2022/06/15 12:08:20;;;;;;;6.40;1.77;;;;;;;-141.50;100.00;63355.56;5057408;28;20114;-82
2022/06/15 12:14:35;;;;;;;3.53;1.65;;;;;;;-141.50;100.00;63355.56;5053068;28;20084;-84
2022/06/15 12:17:45;;;;;;;10.20;1.90;;;;;;;-141.50;100.00;63355.56;5058345;28;20078;-84
2022/06/15 12:20:39;;;;;;;2.70;1.50;;;;;;;-141.50;100.00;63355.56;5009459;28;20053;-83
2022/06/15 12:23:39;;;;;;;5.40;2.13;;;;;;;-141.50;100.00;63355.56;5076034;28;20044;-83
2022/06/15 12:26:23;;;;;;;4.40;1.73;;;;;;;-141.50;100.00;63355.56;5058112;28;20044;-83